createdAt,value
2023-01-17T00:02:24.428Z,-1.46
2023-01-17T00:05:09.936Z,-1.48
2023-01-17T00:07:55.849Z,-1.47
2023-01-17T00:10:24.004Z,-1.48
2023-01-17T00:12:54.398Z,-1.47
2023-01-17T00:15:23.025Z,-1.48
2023-01-17T00:17:50.532Z,-1.50
2023-01-17T00:20:37.289Z,-1.51
2023-01-17T00:23:26.665Z,-1.50
2023-01-17T00:26:05.732Z,-1.48
2023-01-17T00:28:36.755Z,-1.46
2023-01-17T00:31:04.236Z,-1.45
2023-01-17T00:33:31.199Z,-1.44
2023-01-17T00:35:58.751Z,-1.43
2023-01-17T00:38:26.966Z,-1.43
2023-01-17T00:40:53.829Z,-1.41
2023-01-17T00:43:42.456Z,-1.39
2023-01-17T00:46:28.087Z,-1.39
2023-01-17T00:49:13.526Z,-1.37
2023-01-17T00:51:58.689Z,-1.38
2023-01-17T00:54:44.187Z,-1.36
2023-01-17T00:57:54.863Z,-1.34
2023-01-17T01:00:40.380Z,-1.32
2023-01-17T01:03:29.834Z,-1.30
2023-01-17T01:06:15.839Z,-1.29
2023-01-17T01:09:01.321Z,-1.27
2023-01-17T01:11:46.734Z,-1.28
2023-01-17T01:14:31.781Z,-1.28
2023-01-17T01:17:17.207Z,-1.27
2023-01-17T01:20:02.820Z,-1.23
2023-01-17T01:22:48.881Z,-1.20
2023-01-17T01:25:34.384Z,-1.18
2023-01-17T01:28:30.142Z,-1.19
2023-01-17T01:31:18.195Z,-1.20
2023-01-17T01:33:45.282Z,-1.19
2023-01-17T01:36:12.357Z,-1.21
2023-01-17T01:38:39.370Z,-1.23
2023-01-17T01:41:06.332Z,-1.21
2023-01-17T01:43:39.281Z,-1.19
2023-01-17T01:46:06.293Z,-1.18
2023-01-17T01:48:33.872Z,-1.18
2023-01-17T01:51:02.507Z,-1.18
2023-01-17T01:53:32.107Z,-1.21
2023-01-17T01:55:59.357Z,-1.20
2023-01-17T01:58:28.943Z,-1.17
2023-01-17T02:00:55.850Z,-1.13
2023-01-17T02:03:27.435Z,-1.10
2023-01-17T02:05:54.301Z,-1.08
2023-01-17T02:08:23.149Z,-1.03
2023-01-17T02:10:50.865Z,-1.01
2023-01-17T02:13:20.085Z,-1.00
2023-01-17T02:15:56.147Z,-0.97
2023-01-17T02:18:55.418Z,-0.92
2023-01-17T02:21:48.363Z,-0.89
2023-01-17T02:24:33.817Z,-0.88
2023-01-17T02:27:15.737Z,-0.89
2023-01-17T02:30:01.262Z,-0.90
2023-01-17T02:32:47.204Z,-0.91
2023-01-17T02:35:20.528Z,-0.91
2023-01-17T02:37:50.443Z,-0.91
2023-01-17T02:40:22.881Z,-0.92
2023-01-17T02:43:02.829Z,-0.91
2023-01-17T02:45:29.615Z,-0.90
2023-01-17T02:47:56.564Z,-0.92
2023-01-17T02:50:46.717Z,-0.91
2023-01-17T02:53:22.841Z,-0.93
2023-01-17T02:55:52.857Z,-0.94
2023-01-17T02:58:29.008Z,-0.95
2023-01-17T03:01:03.631Z,-0.96
2023-01-17T03:03:45.881Z,-0.95
2023-01-17T03:06:12.768Z,-0.95
2023-01-17T03:08:41.560Z,-0.93
2023-01-17T03:11:12.829Z,-0.93
2023-01-17T03:13:39.874Z,-0.94
2023-01-17T03:16:08.970Z,-0.95
2023-01-17T03:18:36.700Z,-0.93
2023-01-17T03:21:03.619Z,-0.91
2023-01-17T03:23:30.499Z,-0.91
2023-01-17T03:25:57.371Z,-0.90
2023-01-17T03:28:24.327Z,-0.92
2023-01-17T03:30:51.319Z,-0.93
2023-01-17T03:33:18.634Z,-0.94
2023-01-17T03:35:46.099Z,-0.93
2023-01-17T03:38:13.147Z,-0.94
2023-01-17T03:40:40.090Z,-0.96
2023-01-17T03:43:07.472Z,-0.93
2023-01-17T03:45:34.737Z,-0.90
2023-01-17T03:48:02.095Z,-0.89
2023-01-17T03:50:29.567Z,-0.88
2023-01-17T03:53:01.947Z,-0.88
2023-01-17T03:55:31.859Z,-0.88
2023-01-17T03:57:59.083Z,-0.86
2023-01-17T04:00:28.623Z,-0.84
2023-01-17T04:02:55.790Z,-0.83
2023-01-17T04:05:22.806Z,-0.82
2023-01-17T04:07:51.481Z,-0.83
2023-01-17T04:10:21.784Z,-0.85
2023-01-17T04:12:58.264Z,-0.86
2023-01-17T04:15:27.840Z,-0.85
2023-01-17T04:17:55.997Z,-0.84
2023-01-17T04:20:37.707Z,-0.84
2023-01-17T04:23:05.714Z,-0.83
2023-01-17T04:25:33.102Z,-0.82
2023-01-17T04:28:01.336Z,-0.82
2023-01-17T04:30:32.994Z,-0.82
2023-01-17T04:33:03.787Z,-0.81
2023-01-17T04:35:33.723Z,-0.80
2023-01-17T04:38:01.141Z,-0.79
2023-01-17T04:40:29.958Z,-0.75
2023-01-17T04:42:58.677Z,-0.75
2023-01-17T04:48:09.343Z,-0.71
2023-01-17T04:50:44.044Z,-0.70
2023-01-17T04:53:12.241Z,-0.70
2023-01-17T04:55:47.120Z,-0.70
2023-01-17T04:58:42.124Z,-0.70
2023-01-17T05:01:46.099Z,-0.67
2023-01-17T06:04:56.317Z,-0.66
2023-01-17T07:28:43.430Z,0.01
2023-01-17T08:17:23.921Z,0.55
2023-01-17T08:23:48.324Z,0.55
2023-01-17T08:26:22.521Z,0.58
2023-01-17T08:29:00.939Z,0.61
2023-01-17T08:31:43.512Z,0.63
2023-01-17T08:34:26.638Z,0.66
2023-01-17T08:36:54.189Z,0.69
2023-01-17T08:39:32.932Z,0.71
2023-01-17T08:47:07.312Z,0.79
2023-01-17T08:54:27.412Z,0.96
2023-01-17T09:00:29.753Z,1.07
2023-01-17T09:02:57.151Z,1.09
2023-01-17T09:05:28.931Z,1.12
2023-01-17T09:08:15.058Z,1.15
2023-01-17T09:14:18.808Z,1.24
2023-01-17T09:16:52.235Z,1.31
2023-01-17T09:19:26.986Z,1.37
2023-01-17T09:22:04.540Z,1.41
2023-01-17T09:24:40.922Z,1.43
2023-01-17T09:29:50.538Z,1.45
2023-01-17T09:32:20.370Z,1.50
2023-01-17T09:34:52.610Z,1.57
2023-01-17T09:37:22.228Z,1.62
2023-01-17T09:39:56.512Z,1.62
2023-01-17T09:42:36.662Z,1.64
2023-01-17T09:45:04.484Z,1.66
2023-01-17T09:47:42.381Z,1.66
2023-01-17T09:50:41.592Z,1.66
2023-01-17T09:53:36.564Z,1.64
2023-01-17T09:56:44.374Z,1.61
2023-01-17T09:59:19.311Z,1.64
2023-01-17T10:01:52.049Z,1.64
2023-01-17T10:04:40.185Z,1.63
2023-01-17T10:07:33.746Z,1.63
2023-01-17T10:10:33.568Z,1.63
2023-01-17T10:13:19.722Z,1.62
2023-01-17T10:15:54.017Z,1.60
2023-01-17T10:18:52.567Z,1.59
2023-01-17T10:21:19.999Z,1.62
2023-01-17T10:24:01.374Z,1.63
2023-01-17T10:26:45.279Z,1.62
2023-01-17T10:29:32.502Z,1.60
2023-01-17T10:36:27.235Z,1.60
2023-01-17T10:39:32.613Z,1.64
2023-01-17T10:42:41.439Z,1.72
2023-01-17T10:45:56.670Z,1.80
2023-01-17T10:48:36.451Z,1.84
2023-01-17T10:51:16.825Z,1.88
2023-01-17T10:53:55.184Z,1.86
2023-01-17T10:59:51.698Z,1.88
2023-01-17T11:04:04.431Z,1.90
2023-01-17T11:07:45.729Z,1.94
2023-01-17T11:10:34.173Z,1.94
2023-01-17T11:13:26.668Z,1.93
2023-01-17T11:20:05.541Z,1.97
2023-01-17T11:23:04.815Z,2.00
2023-01-17T11:25:36.156Z,2.04
2023-01-17T11:28:48.784Z,2.06
2023-01-17T11:31:31.910Z,2.09
2023-01-17T11:34:16.157Z,2.12
2023-01-17T11:36:56.042Z,2.12
2023-01-17T11:45:26.682Z,2.16
2023-01-17T11:48:11.776Z,2.15
2023-01-17T11:51:05.125Z,2.15
2023-01-17T11:53:58.082Z,2.14
2023-01-17T11:56:34.517Z,2.15
2023-01-17T11:59:19.700Z,2.16
2023-01-17T12:02:30.379Z,2.17
2023-01-17T12:05:29.270Z,2.20
2023-01-17T12:08:22.751Z,2.21
2023-01-17T12:11:29.117Z,2.20
2023-01-17T15:28:10.215Z,2.26
2023-01-17T15:31:18.105Z,2.29
2023-01-17T15:43:22.110Z,2.25
2023-01-17T15:50:50.370Z,2.21
2023-01-17T15:59:03.997Z,2.18
2023-01-17T16:36:04.234Z,2.03
2023-01-17T20:36:57.479Z,1.13
2023-01-17T21:31:40.044Z,0.85
2023-01-17T22:09:26.983Z,0.68
